Time;durP1;ratioP1;P1;durP2;ratioP2;P2;SDS_P1;SDS_P2;PMS_P1;PMS_P2;Temp;Humidity;BMP_temperature;BMP_pressure;BME280_temperature;BME280_humidity;BME280_pressure;Samples;Min_cycle;Max_cycle;Signal;HPM_P1;HPM_P2
2022/08/08 00:01:03;;;;;;;9.02;6.07;;;;;;;19.68;73.36;100266.66;4921547;29;20064;-79
2022/08/08 00:04:06;;;;;;;7.18;6.30;;;;;;;19.56;73.68;100264.34;4917640;29;20052;-78
2022/08/08 00:07:01;;;;;;;10.27;6.30;;;;;;;19.50;74.50;100267.16;4920039;29;20430;-79
2022/08/08 00:10:06;;;;;;;6.25;5.18;;;;;;;19.40;74.37;100263.84;4936325;29;20056;-79
2022/08/08 00:13:01;;;;;;;6.85;6.05;;;;;;;19.30;74.63;100257.09;4922387;29;20052;-81
2022/08/08 00:15:42;;;;;;;7.25;6.32;;;;;;;19.20;74.89;100244.06;4922432;29;20092;-78
2022/08/08 00:18:47;;;;;;;6.95;5.55;;;;;;;19.23;74.99;100251.94;4922769;29;20140;-81
2022/08/08 00:21:25;;;;;;;8.02;6.25;;;;;;;19.16;75.10;100250.34;4916943;29;20498;-81
2022/08/08 00:24:16;;;;;;;10.70;6.00;;;;;;;18.93;75.29;100197.13;4919109;29;20060;-80
2022/08/08 00:26:49;;;;;;;7.28;6.57;;;;;;;19.24;75.92;100260.75;4899861;29;20094;-80
2022/08/08 00:29:25;;;;;;;9.57;7.38;;;;;;;19.03;76.04;100218.03;4916656;29;20058;-81
2022/08/08 00:32:27;;;;;;;10.02;7.05;;;;;;;18.88;76.23;100210.47;4916370;29;20163;-82
2022/08/08 00:35:19;;;;;;;8.63;7.18;;;;;;;19.02;76.98;100250.72;4931199;29;20052;-82
2022/08/08 00:38:07;;;;;;;8.65;6.70;;;;;;;18.90;77.16;100256.31;4916537;29;20052;-81
2022/08/08 00:41:27;;;;;;;8.68;7.10;;;;;;;18.86;77.45;100261.72;4930957;29;20052;-81
2022/08/08 00:44:24;;;;;;;8.93;6.25;;;;;;;18.86;77.38;100259.06;4916335;29;20134;-84
2022/08/08 00:47:15;;;;;;;8.75;7.85;;;;;;;18.91;77.47;100258.06;4916701;29;20144;-80
2022/08/08 00:50:10;;;;;;;9.70;7.75;;;;;;;18.87;77.08;100260.81;4935216;29;20389;-79
2022/08/08 00:52:47;;;;;;;7.75;6.65;;;;;;;18.94;77.30;100255.31;4949956;29;20055;-78
2022/08/08 00:55:29;;;;;;;8.80;7.15;;;;;;;18.93;76.75;100252.72;4934110;29;20094;-83
2022/08/08 00:58:49;;;;;;;9.20;8.10;;;;;;;18.91;77.04;100259.84;4935447;29;20051;-78
2022/08/08 01:01:54;;;;;;;10.30;7.60;;;;;;;19.00;77.05;100256.97;4949881;29;20106;-81
2022/08/08 01:05:11;;;;;;;12.65;9.90;;;;;;;19.01;77.66;100256.03;4923114;29;20094;-78
2022/08/08 01:08:22;;;;;;;12.82;9.65;;;;;;;19.03;78.39;100260.38;4934938;29;20122;-81
2022/08/08 01:11:17;;;;;;;11.73;9.70;;;;;;;19.03;78.67;100264.81;4936555;29;20066;-79
2022/08/08 01:13:55;;;;;;;15.10;10.32;;;;;;;19.05;78.65;100267.44;4934177;29;20052;-82
2022/08/08 01:16:50;;;;;;;13.10;10.00;;;;;;;18.98;78.98;100257.00;4934405;29;20130;-82
2022/08/08 01:19:44;;;;;;;12.20;9.52;;;;;;;18.77;79.16;100218.66;4949829;29;20063;-79
2022/08/08 01:22:36;;;;;;;13.65;10.25;;;;;;;18.66;79.24;100207.47;4949867;29;20094;-78
2022/08/08 01:25:27;;;;;;;12.35;10.70;;;;;;;18.86;79.45;100248.47;4936853;29;20149;-80
2022/08/08 01:28:30;;;;;;;13.23;10.52;;;;;;;18.78;79.42;100251.34;4937155;29;20066;-78
2022/08/08 01:31:05;;;;;;;14.32;10.82;;;;;;;18.83;79.76;100260.88;4953191;29;20134;-79
2022/08/08 01:34:19;;;;;;;13.50;10.10;;;;;;;18.81;79.33;100265.34;4941192;29;20142;-81
2022/08/08 01:37:28;;;;;;;13.32;10.70;;;;;;;18.83;79.47;100266.19;4938043;29;20060;-81
2022/08/08 01:40:36;;;;;;;13.93;10.30;;;;;;;18.90;79.36;100266.03;4952786;29;20430;-80
2022/08/08 01:43:42;;;;;;;13.50;10.77;;;;;;;18.92;79.01;100275.66;4938152;29;20534;-80
2022/08/08 01:46:39;;;;;;;11.55;9.98;;;;;;;18.92;78.90;100274.81;4953016;29;20060;-80
2022/08/08 01:49:17;;;;;;;13.27;10.57;;;;;;;18.99;79.11;100281.69;4952989;29;20083;-79
2022/08/08 01:52:14;;;;;;;12.63;10.23;;;;;;;19.03;79.02;100278.06;4953235;29;20067;-82
2022/08/08 01:55:03;;;;;;;12.57;11.10;;;;;;;19.10;79.13;100282.31;4955195;29;20574;-79
2022/08/08 01:58:02;;;;;;;11.70;9.85;;;;;;;19.16;79.28;100271.53;4949993;29;20052;-79
2022/08/08 02:01:07;;;;;;;13.02;10.63;;;;;;;19.19;78.88;100283.84;4933616;29;20084;-79
2022/08/08 02:04:05;;;;;;;14.63;10.50;;;;;;;19.16;78.31;100276.81;4933679;29;20062;-84
2022/08/08 02:06:53;;;;;;;13.75;11.50;;;;;;;19.02;78.86;100273.69;4918759;29;20434;-83
2022/08/08 02:09:46;;;;;;;13.23;11.45;;;;;;;18.93;78.84;100268.59;4933475;29;20063;-84
2022/08/08 02:12:55;;;;;;;13.00;11.45;;;;;;;18.86;79.25;100281.09;4917757;29;20103;-83
2022/08/08 02:15:34;;;;;;;13.48;10.85;;;;;;;18.60;79.72;100239.38;4933345;29;20152;-84
2022/08/08 02:18:42;;;;;;;17.08;11.52;;;;;;;18.84;79.74;100290.84;4917897;29;20052;-85
2022/08/08 02:24:14;;;;;;;15.93;12.00;;;;;;;18.68;79.83;100273.59;4917768;29;20095;-83
2022/08/08 02:26:57;;;;;;;15.32;11.50;;;;;;;18.79;79.63;100293.63;4918100;29;20059;-86
2022/08/08 02:30:07;;;;;;;14.80;11.80;;;;;;;18.74;79.83;100302.56;4934387;29;20056;-81
2022/08/08 02:33:05;;;;;;;14.30;11.77;;;;;;;18.66;80.15;100297.44;4933655;29;20063;-88
2022/08/08 02:35:36;;;;;;;14.65;12.70;;;;;;;18.67;80.40;100307.13;4933366;29;20072;-83
2022/08/08 02:38:33;;;;;;;15.85;11.88;;;;;;;18.68;80.47;100298.25;4933655;29;20059;-83
2022/08/08 02:41:41;;;;;;;13.73;11.82;;;;;;;18.45;80.04;100260.88;4933004;29;20055;-80
2022/08/08 02:45:11;;;;;;;13.02;11.57;;;;;;;18.67;80.15;100282.41;4923934;29;20095;-81
2022/08/08 02:47:51;;;;;;;12.90;11.48;;;;;;;18.75;80.02;100288.41;4931808;29;20051;-83
2022/08/08 02:50:42;;;;;;;14.73;12.07;;;;;;;18.82;79.94;100288.28;4933047;29;20083;-82
2022/08/08 02:54:05;;;;;;;14.93;11.75;;;;;;;18.90;79.09;100293.38;4917235;29;20048;-85
2022/08/08 02:57:12;;;;;;;14.50;11.68;;;;;;;18.92;79.33;100286.25;4893831;29;20056;-83
2022/08/08 02:59:54;;;;;;;14.52;11.77;;;;;;;19.01;78.83;100287.81;4932119;29;20459;-84
2022/08/08 03:03:23;;;;;;;17.02;11.73;;;;;;;18.94;78.28;100291.53;4918162;29;20067;-83
2022/08/08 03:06:35;;;;;;;14.25;12.75;;;;;;;19.07;78.26;100279.72;4916746;29;20492;-82
2022/08/08 03:09:30;;;;;;;14.43;12.15;;;;;;;19.24;78.44;100292.53;4913781;29;20139;-82
2022/08/08 03:12:43;;;;;;;13.55;12.02;;;;;;;19.42;78.02;100293.84;4930077;29;20048;-80
2022/08/08 03:15:51;;;;;;;16.20;12.82;;;;;;;19.65;77.56;100306.47;4895185;29;20055;-78
2022/08/08 03:18:51;;;;;;;15.43;12.65;;;;;;;19.86;77.00;100306.84;4917306;29;20067;-83
2022/08/08 03:21:21;;;;;;;17.02;13.05;;;;;;;19.98;76.35;100304.72;4916795;29;20080;-80
2022/08/08 03:24:07;;;;;;;15.98;13.10;;;;;;;19.98;76.29;100310.03;4931913;29;20076;-82
2022/08/08 03:26:42;;;;;;;16.13;12.60;;;;;;;20.01;76.21;100314.38;4931709;29;20518;-80
2022/08/08 03:29:20;;;;;;;16.05;12.80;;;;;;;19.93;76.22;100308.41;4932371;29;20052;-81
2022/08/08 03:34:58;;;;;;;15.27;12.70;;;;;;;19.76;76.27;100300.91;4900363;29;20423;-82
2022/08/08 03:37:27;;;;;;;15.45;13.25;;;;;;;19.79;76.50;100320.25;4917340;29;20052;-82
2022/08/08 03:40:19;;;;;;;17.05;12.93;;;;;;;19.59;76.46;100274.84;4917342;29;20064;-82
2022/08/08 03:43:08;;;;;;;14.60;13.02;;;;;;;19.67;76.30;100294.06;4931898;29;20143;-85
2022/08/08 03:45:46;;;;;;;16.55;14.15;;;;;;;19.84;75.68;100307.75;4900037;29;20407;-80
2022/08/08 03:48:35;;;;;;;18.92;14.07;;;;;;;20.00;75.78;100325.88;4900922;29;20056;-81
2022/08/08 03:51:28;;;;;;;18.77;15.85;;;;;;;20.14;75.05;100310.44;4918247;29;20059;-83
2022/08/08 03:54:19;;;;;;;17.67;15.40;;;;;;;20.46;74.26;100332.50;4906782;29;20052;-82
2022/08/08 03:57:15;;;;;;;15.80;14.10;;;;;;;20.70;73.10;100335.38;4919414;29;20075;-80
2022/08/08 04:00:13;;;;;;;16.85;14.60;;;;;;;20.86;72.09;100333.94;4931916;29;20529;-82
2022/08/08 04:02:58;;;;;;;17.15;14.48;;;;;;;20.99;71.85;100327.34;4900902;29;20062;-77
2022/08/08 04:05:31;;;;;;;16.92;14.30;;;;;;;20.98;71.84;100336.22;4932375;29;20051;-78
2022/08/08 04:08:20;;;;;;;19.08;15.75;;;;;;;20.84;72.13;100317.19;4911616;29;20451;-79
2022/08/08 04:11:07;;;;;;;21.08;16.52;;;;;;;20.70;72.78;100335.38;4912411;29;20115;-79
2022/08/08 04:13:38;;;;;;;21.75;17.27;;;;;;;20.51;73.39;100335.88;4929205;29;20072;-78
2022/08/08 04:16:29;;;;;;;22.33;17.38;;;;;;;20.40;74.01;100344.16;4930979;29;20534;-78
2022/08/08 04:19:13;;;;;;;22.17;16.50;;;;;;;20.31;74.27;100343.56;4928746;29;20146;-80
2022/08/08 04:21:59;;;;;;;22.80;16.80;;;;;;;20.28;74.70;100335.69;4919636;29;20077;-80
2022/08/08 04:24:35;;;;;;;20.73;16.58;;;;;;;20.48;74.31;100313.88;4914668;29;20467;-81
2022/08/08 04:27:10;;;;;;;20.98;15.80;;;;;;;21.21;72.25;100337.28;4932141;29;20055;-80
2022/08/08 04:29:58;;;;;;;21.15;15.73;;;;;;;21.36;70.88;100335.88;4915294;29;20507;-79
2022/08/08 04:32:46;;;;;;;23.20;15.25;;;;;;;21.69;70.22;100344.53;4916232;29;20585;-81
2022/08/08 04:35:21;;;;;;;18.70;13.88;;;;;;;21.98;69.18;100330.19;4930882;29;20056;-80
2022/08/08 04:37:52;;;;;;;18.88;14.68;;;;;;;22.29;67.99;100329.09;4899718;29;20055;-80
2022/08/08 04:40:26;;;;;;;17.10;13.02;;;;;;;22.33;68.01;100349.34;4931216;29;20056;-80
2022/08/08 04:42:56;;;;;;;17.50;13.60;;;;;;;22.67;66.90;100362.25;4899769;29;20055;-82
2022/08/08 04:45:37;;;;;;;17.05;12.35;;;;;;;23.01;65.83;100355.59;4931263;29;20052;-82
2022/08/08 04:48:08;;;;;;;15.57;11.38;;;;;;;23.23;64.60;100317.41;4916406;29;20421;-80
2022/08/08 04:50:40;;;;;;;14.18;10.80;;;;;;;23.64;63.79;100349.44;4931201;29;20070;-81
2022/08/08 04:53:17;;;;;;;14.27;9.55;;;;;;;23.96;62.22;100360.53;4930905;29;20063;-79
2022/08/08 04:56:07;;;;;;;13.32;9.27;;;;;;;23.95;61.55;100354.34;4931001;29;20055;-80
2022/08/08 04:58:36;;;;;;;11.07;8.15;;;;;;;23.99;61.34;100365.75;4900219;29;20087;-81
2022/08/08 05:01:06;;;;;;;13.30;7.82;;;;;;;24.11;60.26;100376.75;4934760;29;20071;-82
2022/08/08 05:03:43;;;;;;;9.70;7.38;;;;;;;24.11;60.19;100375.88;4908537;29;20056;-81
2022/08/08 05:06:35;;;;;;;11.27;7.00;;;;;;;24.21;60.34;100374.53;4915524;29;20071;-82
2022/08/08 05:09:09;;;;;;;10.38;7.75;;;;;;;24.22;60.12;100384.28;4934597;29;20107;-79
2022/08/08 05:11:41;;;;;;;12.82;7.70;;;;;;;24.17;60.06;100348.03;4934592;29;20561;-78
2022/08/08 05:14:25;;;;;;;9.40;7.35;;;;;;;24.55;58.58;100386.38;4934498;29;20056;-80
2022/08/08 05:17:00;;;;;;;12.48;7.63;;;;;;;24.81;58.28;100392.31;4934425;29;20503;-80
2022/08/08 05:19:38;;;;;;;8.48;7.57;;;;;;;24.68;58.42;100392.00;4919541;29;20056;-82
2022/08/08 05:22:31;;;;;;;11.40;7.93;;;;;;;24.40;59.57;100387.91;4934041;29;20079;-79
2022/08/08 05:25:04;;;;;;;10.82;7.82;;;;;;;23.96;60.96;100389.88;4934001;29;20056;-79
2022/08/08 05:27:32;;;;;;;10.30;8.25;;;;;;;23.48;61.08;100351.91;4901867;29;20052;-79
2022/08/08 05:30:11;;;;;;;12.68;8.40;;;;;;;23.79;60.90;100395.94;4916904;29;20072;-80
2022/08/08 05:32:46;;;;;;;10.95;8.60;;;;;;;23.79;60.73;100380.84;4933868;29;20107;-76
2022/08/08 05:35:25;;;;;;;10.10;9.02;;;;;;;23.85;60.70;100385.03;4918236;29;20056;-78
2022/08/08 05:38:06;;;;;;;13.30;9.60;;;;;;;23.79;60.59;100402.19;4902462;29;20468;-79
2022/08/08 05:41:04;;;;;;;10.40;9.13;;;;;;;23.76;61.21;100388.94;4921596;29;20533;-82
2022/08/08 05:43:34;;;;;;;12.52;8.88;;;;;;;23.57;61.30;100406.63;4934554;29;20104;-81
2022/08/08 05:46:15;;;;;;;12.35;8.45;;;;;;;23.46;62.14;100409.75;4934719;29;20599;-79
2022/08/08 05:48:46;;;;;;;9.07;8.15;;;;;;;23.34;61.42;100392.47;4935317;29;20063;-81
2022/08/08 05:51:24;;;;;;;11.57;9.00;;;;;;;23.50;62.04;100414.03;4934195;29;20151;-77
2022/08/08 05:53:58;;;;;;;14.32;10.32;;;;;;;23.50;62.61;100406.03;4919730;29;20052;-82
2022/08/08 05:56:50;;;;;;;12.93;9.75;;;;;;;23.28;62.69;100380.25;4915683;29;20107;-78
2022/08/08 05:59:24;;;;;;;12.07;9.50;;;;;;;23.27;63.14;100423.84;4933613;29;20060;-81
2022/08/08 06:05:17;;;;;;;13.25;10.43;;;;;;;23.34;62.77;100423.56;4917727;29;20091;-82
2022/08/08 06:08:09;;;;;;;15.07;11.07;;;;;;;23.21;63.25;100417.88;4933548;29;20052;-79
2022/08/08 06:11:04;;;;;;;12.52;9.88;;;;;;;23.07;63.81;100413.97;4918669;29;20503;-81
2022/08/08 06:13:35;;;;;;;13.85;10.70;;;;;;;23.07;64.07;100418.44;4936663;29;20056;-79
2022/08/08 06:16:19;;;;;;;14.05;10.43;;;;;;;23.13;64.00;100409.34;4933870;29;20056;-80
2022/08/08 06:19:15;;;;;;;12.32;10.43;;;;;;;23.13;63.50;100404.00;4901915;29;20055;-81
2022/08/08 06:21:48;;;;;;;16.55;10.52;;;;;;;23.22;62.98;100422.28;4902212;29;20055;-85
2022/08/08 06:24:37;;;;;;;14.88;10.10;;;;;;;23.51;62.45;100432.63;4933250;29;20056;-81
2022/08/08 06:27:21;;;;;;;12.70;10.27;;;;;;;23.66;61.88;100416.91;4901820;29;20479;-79
2022/08/08 06:30:12;;;;;;;11.55;9.80;;;;;;;23.86;61.73;100414.31;4902642;29;20160;-81
2022/08/08 06:32:59;;;;;;;12.75;10.10;;;;;;;24.29;60.40;100419.56;4932299;29;20111;-80
2022/08/08 06:35:33;;;;;;;12.38;9.93;;;;;;;24.37;59.07;100377.38;4900821;29;20055;-77
2022/08/08 06:38:30;;;;;;;13.38;11.27;;;;;;;24.83;57.63;100395.78;4898703;29;20049;-81
2022/08/08 06:41:06;;;;;;;12.35;9.80;;;;;;;25.33;56.40;100432.59;4899578;29;20148;-78
2022/08/08 06:43:44;;;;;;;12.18;10.90;;;;;;;25.55;55.81;100421.69;4923484;29;20534;-79
2022/08/08 06:46:30;;;;;;;12.50;9.80;;;;;;;25.41;55.87;100418.84;4932568;29;20063;-79
2022/08/08 06:48:59;;;;;;;12.10;10.80;;;;;;;25.16;56.64;100424.47;4933142;29;20056;-78
2022/08/08 06:51:29;;;;;;;13.77;11.80;;;;;;;24.80;57.37;100385.22;4906146;29;20086;-79
2022/08/08 06:54:21;;;;;;;13.23;11.20;;;;;;;25.08;57.10;100439.09;4911270;29;20048;-80
2022/08/08 06:56:51;;;;;;;13.27;10.98;;;;;;;24.28;57.80;100367.09;4910179;29;20142;-81
2022/08/08 06:59:20;;;;;;;17.02;10.93;;;;;;;24.52;58.98;100446.13;4945943;29;20086;-79
2022/08/08 07:02:01;;;;;;;12.00;10.68;;;;;;;24.32;59.85;100443.44;4918547;29;20116;-77
2022/08/08 07:05:05;;;;;;;13.00;11.70;;;;;;;24.26;60.05;100455.28;4936237;29;20089;-78
2022/08/08 07:07:46;;;;;;;13.77;11.63;;;;;;;24.04;60.47;100451.78;4942307;29;20056;-79
2022/08/08 07:10:20;;;;;;;13.95;11.98;;;;;;;23.68;61.44;100439.94;4941695;29;20407;-78
2022/08/08 07:12:58;;;;;;;15.30;12.52;;;;;;;23.62;61.76;100434.00;4937016;29;20115;-79
2022/08/08 07:15:51;;;;;;;16.80;13.60;;;;;;;23.70;61.54;100448.75;4940252;29;20051;-79
2022/08/08 07:19:05;;;;;;;15.32;11.88;;;;;;;23.95;61.23;100439.72;4926935;29;20047;-81
2022/08/08 07:21:54;;;;;;;12.95;11.55;;;;;;;24.18;60.18;100419.16;4910121;29;20498;-78
2022/08/08 07:24:38;;;;;;;14.23;12.18;;;;;;;24.72;59.25;100453.22;4909587;29;20056;-79
2022/08/08 07:27:13;;;;;;;13.68;11.85;;;;;;;25.13;57.66;100446.88;4938579;29;20123;-79
2022/08/08 07:29:47;;;;;;;12.73;11.32;;;;;;;25.77;55.58;100434.88;4924834;29;20506;-80
2022/08/08 07:32:35;;;;;;;;;;;;;;;25.97;56.27;100441.03;4941940;29;20469;-79
2022/08/08 07:35:04;;;;;;;12.88;10.73;;;;;;;26.07;54.60;100440.47;4943596;29;19934;-78
2022/08/08 07:37:38;;;;;;;12.98;10.60;;;;;;;25.79;55.24;100451.72;4906732;29;20056;-80
2022/08/08 07:40:35;;;;;;;12.50;10.88;;;;;;;25.45;55.99;100433.81;4913696;29;20053;-82
2022/08/08 07:43:11;;;;;;;11.30;10.27;;;;;;;25.37;55.15;100435.97;4913568;29;20067;-81
2022/08/08 07:45:44;;;;;;;12.02;10.73;;;;;;;25.11;55.29;100428.25;4913751;29;20151;-79
2022/08/08 07:48:33;;;;;;;10.88;9.75;;;;;;;24.67;56.26;100449.03;4919705;29;20094;-80
2022/08/08 07:51:03;;;;;;;10.38;9.32;;;;;;;24.54;56.94;100422.00;4915858;29;20056;-79
2022/08/08 07:53:52;;;;;;;11.40;9.95;;;;;;;24.73;56.07;100438.06;4915040;29;20514;-82
2022/08/08 07:57:02;;;;;;;11.82;10.25;;;;;;;24.77;56.32;100436.97;4929993;29;20116;-80
2022/08/08 07:59:55;;;;;;;11.68;10.23;;;;;;;24.92;55.81;100427.38;4925371;29;20067;-80
2022/08/08 08:02:28;;;;;;;13.05;10.68;;;;;;;25.12;55.02;100423.75;4909727;29;20060;-80
2022/08/08 08:05:14;;;;;;;12.90;11.50;;;;;;;25.71;53.39;100433.34;4916226;29;20064;-80
2022/08/08 08:07:51;;;;;;;11.10;9.95;;;;;;;26.12;53.22;100441.09;4899220;29;20056;-81
2022/08/08 08:10:30;;;;;;;12.18;10.40;;;;;;;25.54;53.46;100407.44;4913992;29;20067;-80
2022/08/08 08:13:22;;;;;;;13.27;10.55;;;;;;;25.44;54.51;100430.22;4902401;29;20503;-81
2022/08/08 08:16:18;;;;;;;12.27;11.10;;;;;;;25.31;54.75;100438.00;4913411;29;20108;-80
2022/08/08 08:19:12;;;;;;;14.02;11.20;;;;;;;25.34;54.34;100445.03;4912611;29;20102;-80
2022/08/08 08:21:47;;;;;;;12.02;10.82;;;;;;;25.54;53.69;100452.91;4912232;29;20053;-82
2022/08/08 08:24:44;;;;;;;12.13;10.10;;;;;;;25.32;55.25;100454.94;4908721;29;20052;-78
2022/08/08 08:27:18;;;;;;;12.30;10.63;;;;;;;25.19;56.14;100451.94;4899806;29;20059;-80
2022/08/08 08:29:49;;;;;;;12.77;11.02;;;;;;;25.22;55.82;100448.28;4931436;29;20067;-78
2022/08/08 08:32:22;;;;;;;13.48;11.52;;;;;;;25.21;55.95;100447.44;4931649;29;20056;-81
2022/08/08 08:35:11;;;;;;;16.33;12.13;;;;;;;25.39;55.38;100448.31;4931122;29;20048;-79
2022/08/08 08:37:43;;;;;;;12.98;11.63;;;;;;;25.73;54.52;100438.63;4931332;29;20083;-79
2022/08/08 08:40:33;;;;;;;16.02;12.13;;;;;;;25.95;53.66;100439.28;4932253;29;20052;-82
2022/08/08 08:43:04;;;;;;;14.85;13.20;;;;;;;25.82;53.29;100434.63;4931047;29;20491;-81
2022/08/08 08:45:47;;;;;;;15.48;13.65;;;;;;;25.75;53.84;100456.34;4916542;29;20415;-80
2022/08/08 08:48:19;;;;;;;14.32;12.63;;;;;;;25.69;53.26;100450.44;4919916;29;20056;-82
2022/08/08 08:50:54;;;;;;;16.63;12.45;;;;;;;25.62;53.98;100422.22;4931731;29;20167;-80
2022/08/08 08:53:25;;;;;;;14.75;13.05;;;;;;;26.12;52.61;100461.66;4916668;29;20056;-80
2022/08/08 08:56:19;;;;;;;16.25;14.10;;;;;;;26.46;51.47;100462.56;4899274;29;20445;-80
2022/08/08 08:58:58;;;;;;;16.85;14.00;;;;;;;26.21;52.00;100452.28;4931719;29;20127;-81
2022/08/08 09:01:43;;;;;;;18.92;14.27;;;;;;;25.59;53.44;100471.41;4930927;29;20545;-80
2022/08/08 09:04:24;;;;;;;15.52;12.75;;;;;;;25.31;53.78;100413.06;4931016;29;20055;-80
2022/08/08 09:07:13;;;;;;;15.90;13.77;;;;;;;25.72;53.73;100460.97;4913087;29;20052;-79
2022/08/08 09:09:49;;;;;;;15.00;13.40;;;;;;;25.37;55.20;100452.03;4899458;29;20056;-80
2022/08/08 09:12:27;;;;;;;15.95;13.48;;;;;;;24.76;55.70;100410.34;4930760;29;20151;-79
2022/08/08 09:14:59;;;;;;;14.85;13.25;;;;;;;24.94;56.09;100449.56;4933157;29;20076;-79
2022/08/08 09:17:33;;;;;;;14.55;12.40;;;;;;;25.21;55.08;100446.53;4930668;29;20088;-80
2022/08/08 09:20:15;;;;;;;13.93;12.45;;;;;;;25.29;55.12;100442.53;4930649;29;20493;-80
2022/08/08 09:23:04;;;;;;;12.95;11.55;;;;;;;25.25;54.94;100424.06;4943203;29;20439;-79
2022/08/08 09:26:16;;;;;;;15.02;11.73;;;;;;;25.39;55.20;100452.81;4931974;29;20056;-79
2022/08/08 09:28:48;;;;;;;16.02;12.23;;;;;;;25.34;54.89;100432.50;4918070;29;20058;-80
2022/08/08 09:31:29;;;;;;;17.02;13.10;;;;;;;25.55;54.13;100413.66;4933514;29;20056;-79
2022/08/08 09:34:19;;;;;;;14.45;12.63;;;;;;;25.75;53.87;100436.75;4934694;29;20055;-80
2022/08/08 09:37:07;;;;;;;14.13;12.32;;;;;;;25.85;53.75;100440.66;4933461;29;20580;-79
2022/08/08 09:40:07;;;;;;;18.10;13.65;;;;;;;25.75;53.73;100432.25;4933876;29;20060;-80
2022/08/08 09:42:44;;;;;;;17.98;14.50;;;;;;;25.58;54.13;100439.41;4935223;29;20083;-80
2022/08/08 09:45:23;;;;;;;20.48;15.77;;;;;;;25.51;53.22;100406.72;4936430;29;20111;-79
2022/08/08 09:48:15;;;;;;;14.77;13.23;;;;;;;25.50;53.68;100442.44;4938534;29;20142;-79
2022/08/08 09:50:51;;;;;;;16.03;13.20;;;;;;;25.26;55.10;100464.09;4938144;29;20047;-80
2022/08/08 09:53:48;;;;;;;15.60;12.88;;;;;;;25.03;55.22;100465.16;4938123;29;20142;-80
2022/08/08 09:56:41;;;;;;;17.98;14.27;;;;;;;25.02;54.75;100449.22;4937972;29;20055;-78
2022/08/08 09:59:16;;;;;;;15.02;13.43;;;;;;;25.51;54.03;100452.19;4937929;29;20147;-79
2022/08/08 10:02:06;;;;;;;16.10;13.27;;;;;;;25.53;54.09;100451.19;4937728;29;20067;-79
2022/08/08 10:04:41;;;;;;;14.80;13.18;;;;;;;25.28;53.65;100422.13;4929038;29;20430;-79
2022/08/08 10:07:15;;;;;;;15.75;13.32;;;;;;;25.34;54.00;100453.91;4918684;29;20054;-77
2022/08/08 10:09:49;;;;;;;14.45;12.95;;;;;;;25.09;53.93;100450.63;4918765;29;20063;-79
2022/08/08 10:12:34;;;;;;;16.23;12.73;;;;;;;24.84;54.89;100425.06;4932807;29;20511;-80
2022/08/08 10:15:08;;;;;;;15.93;13.48;;;;;;;25.03;55.17;100446.44;4918833;29;20048;-81
2022/08/08 10:17:47;;;;;;;19.75;13.85;;;;;;;24.92;55.20;100422.03;4918628;29;20513;-79
2022/08/08 10:20:46;;;;;;;;;;;;;;;24.90;55.43;100453.31;4932452;29;20481;-78
2022/08/08 10:23:33;;;;;;;15.30;13.68;;;;;;;25.42;54.45;100460.66;4922214;29;19982;-78
2022/08/08 10:26:19;;;;;;;15.02;12.57;;;;;;;25.76;52.94;100462.53;4923098;29;20079;-81
2022/08/08 10:29:06;;;;;;;14.45;12.95;;;;;;;25.85;52.76;100456.72;4907014;29;20119;-78
2022/08/08 10:34:23;;;;;;;14.95;12.57;;;;;;;26.01;51.72;100450.66;4923489;29;20074;-78
2022/08/08 10:36:55;;;;;;;14.27;12.80;;;;;;;26.03;51.64;100462.09;4919703;29;20486;-78
2022/08/08 10:39:29;;;;;;;14.93;13.13;;;;;;;25.77;51.67;100421.47;4918344;29;20564;-79
2022/08/08 10:42:20;;;;;;;13.60;12.30;;;;;;;26.02;52.05;100466.59;4918125;29;20532;-77
2022/08/08 10:45:03;;;;;;;14.55;13.05;;;;;;;25.81;51.78;100408.78;4919826;29;20067;-78
2022/08/08 10:47:43;;;;;;;13.88;12.40;;;;;;;26.46;51.35;100462.56;4901083;29;20138;-81
2022/08/08 10:50:34;;;;;;;13.70;12.27;;;;;;;26.65;50.46;100465.13;4920335;29;20111;-79
2022/08/08 10:53:09;;;;;;;15.07;13.18;;;;;;;26.69;49.96;100461.34;4919003;29;20054;-79
2022/08/08 10:55:41;;;;;;;15.13;11.93;;;;;;;26.81;49.39;100462.50;4900754;29;20099;-78
2022/08/08 10:58:13;;;;;;;14.02;12.63;;;;;;;26.87;49.45;100443.41;4899747;29;20087;-79
2022/08/08 11:00:44;;;;;;;13.57;12.17;;;;;;;26.64;50.22;100450.88;4917785;29;20056;-78
2022/08/08 11:03:19;;;;;;;16.30;13.25;;;;;;;26.21;50.92;100442.44;4917848;29;20108;-79
2022/08/08 11:06:07;;;;;;;14.57;12.50;;;;;;;25.77;52.04;100447.34;4917817;29;20410;-79
2022/08/08 11:08:40;;;;;;;15.30;13.15;;;;;;;25.36;53.00;100442.25;4917951;29;20051;-78
2022/08/08 11:11:20;;;;;;;13.52;12.13;;;;;;;25.18;52.64;100436.81;4917939;29;20056;-78
2022/08/08 11:14:01;;;;;;;14.98;12.55;;;;;;;25.01;53.36;100428.75;4918120;29;20103;-78
2022/08/08 11:16:31;;;;;;;13.60;12.20;;;;;;;25.18;53.20;100427.94;4917853;29;20087;-78
2022/08/08 11:19:02;;;;;;;14.30;12.77;;;;;;;25.31;53.00;100445.16;4931699;29;20052;-79
2022/08/08 11:21:35;;;;;;;13.82;12.02;;;;;;;25.58;52.36;100447.44;4917531;29;20056;-79
2022/08/08 11:24:04;;;;;;;13.25;11.90;;;;;;;25.75;51.95;100452.81;4931904;29;20056;-79
2022/08/08 11:26:35;;;;;;;15.13;11.73;;;;;;;25.96;51.34;100437.47;4917468;29;20052;-81
2022/08/08 11:29:06;;;;;;;17.27;11.85;;;;;;;26.25;50.59;100438.66;4917801;29;20083;-79
2022/08/08 11:31:40;;;;;;;13.18;11.88;;;;;;;26.40;50.15;100442.31;4917038;29;20511;-78
2022/08/08 11:34:17;;;;;;;14.20;12.27;;;;;;;26.49;50.15;100446.31;4917306;29;20063;-79
2022/08/08 11:36:59;;;;;;;13.48;11.52;;;;;;;26.14;50.18;100412.44;4916596;29;20052;-79
2022/08/08 11:39:41;;;;;;;14.13;10.82;;;;;;;25.81;51.64;100425.72;4916169;29;20052;-79
2022/08/08 11:42:25;;;;;;;12.98;11.30;;;;;;;26.04;51.48;100445.97;4917256;29;20064;-79
2022/08/08 11:44:57;;;;;;;11.45;10.38;;;;;;;26.15;51.12;100438.25;4916984;29;20060;-79
2022/08/08 11:47:26;;;;;;;14.00;11.70;;;;;;;25.80;51.45;100440.03;4899867;29;20575;-79
2022/08/08 11:50:18;;;;;;;12.13;10.85;;;;;;;25.78;51.99;100436.56;4917309;29;20059;-77
2022/08/08 11:52:51;;;;;;;10.95;9.85;;;;;;;25.70;52.08;100406.66;4900140;29;20056;-79
2022/08/08 11:55:27;;;;;;;11.25;10.15;;;;;;;26.03;52.00;100433.56;4916899;29;20048;-79
2022/08/08 11:58:08;;;;;;;10.98;9.82;;;;;;;25.49;52.05;100401.47;4916731;29;20139;-81
2022/08/08 12:00:48;;;;;;;11.15;9.45;;;;;;;25.85;51.96;100439.81;4926630;29;20103;-81
2022/08/08 12:03:23;;;;;;;11.02;9.73;;;;;;;25.79;51.96;100430.31;4917379;29;20052;-80
2022/08/08 12:05:56;;;;;;;11.07;9.98;;;;;;;25.78;51.68;100417.84;4916879;29;20111;-78
2022/08/08 12:08:33;;;;;;;11.90;10.25;;;;;;;25.83;51.58;100439.00;4916926;29;20118;-81
2022/08/08 12:11:02;;;;;;;11.63;10.43;;;;;;;25.64;51.64;100393.59;4916634;29;20088;-79
2022/08/08 12:13:30;;;;;;;11.23;10.13;;;;;;;25.90;51.38;100432.47;4917100;29;20056;-78
2022/08/08 12:16:20;;;;;;;14.50;10.07;;;;;;;25.94;51.64;100436.69;4916680;29;20079;-78
2022/08/08 12:19:09;;;;;;;11.13;9.20;;;;;;;25.90;51.88;100435.13;4916945;29;20052;-79
2022/08/08 12:21:36;;;;;;;11.20;9.68;;;;;;;25.86;51.84;100437.06;4916845;29;20067;-78
2022/08/08 12:24:23;;;;;;;11.02;9.45;;;;;;;25.89;52.06;100433.38;4915830;29;20421;-78
2022/08/08 12:26:55;;;;;;;11.00;9.55;;;;;;;25.51;52.52;100410.28;4916666;29;20478;-78
2022/08/08 12:29:27;;;;;;;11.02;9.95;;;;;;;25.37;53.27;100438.66;4916526;29;20058;-79
2022/08/08 12:32:15;;;;;;;12.40;10.05;;;;;;;25.38;53.11;100437.69;4931488;29;20074;-81
2022/08/08 12:34:57;;;;;;;;;;;;;;;25.00;53.66;100435.91;4917186;29;20142;-79
2022/08/08 12:37:42;;;;;;;10.80;9.80;;;;;;;24.82;54.00;100431.41;4917400;29;19987;-80
2022/08/08 12:40:37;;;;;;;11.75;9.98;;;;;;;25.03;53.72;100445.59;4918143;29;20147;-80
2022/08/08 12:43:29;;;;;;;12.02;10.05;;;;;;;25.12;53.44;100440.69;4933552;29;20052;-80